Millbrae, CA

10:41 AM PDT on July 24, 2016 (GMT -0700)
Mills Estates | | Change Station

Elev 449 ft 37.59 °N, 122.40 °W | Updated 15 seconds ago

Partly Cloudy
Partly Cloudy
70.9 °F
Feels Like 77 °F
N
0.0
Wind Variable Wind from NE
Gusts 0.0 mph

Today
High -- | Low -- °F
--% Chance of Precip.
Yesterday
High -- | Low -- °F
Precip. -- in
Pressure 29.88 in
Visibility 10.0 miles
Clouds Few 900 ft
Heat Index 77 °F
Dew Point 44 °F
Humidity 38%
Rainfall 0.00 in
Snow Depth Not available.
6:07 AM 8:24 PM
Waning Gibbous, 74% visible
METAR KSFO 241656Z 30010KT 10SM FEW009 18/11 A2988 RMK AO2 SLP118 T01830111
Pressure 29.88 in
Visibility 10.0 miles
Clouds Few 900 ft
Heat Index 77 °F
Dew Point 44 °F
Humidity 38%
Rainfall 0.00 in
Snow Depth Not available.
6:07 AM 8:24 PM
Waning Gibbous, 74% visible
METAR KSFO 241656Z 30010KT 10SM FEW009 18/11 A2988 RMK AO2 SLP118 T01830111

10-Day Weather Forecast

Almanac

Astronomy

Jul. 24, 2016 Rise Set
Actual Time
Civil Twilight
Nautical Twilight
Astronomical Twilight
Moon
Length of Visible Light
Length of Day
Tomorrow will be .
, % of the Moon is Illuminated

Today's Extremes

State Highs State Lows

Community

WunderPhotos

Upload Photos

1,927,134 photos uploaded!

WunderBlog® & News

Nearby

Air Quality

  Air Quality AQ Index Pollutant
Not available.

Snow Depth

Station Depth Elevation

Earthquake Activity

City Distance Mag. Time & Date
Minimum magnitude displayed is 2.5.

Coastal Water Temperatures

Place Temperature

Stations

Nearby Weather Stations

Station Location Temp. Windchill Dew Point Humidity Wind Precip. Elev Updated Type
                   

Watches & Warnings

There are currently no watches in effect.